sensor_id;sensor_type;location;lat;lon;timestamp;temperature;humidity
17208;DHT22;8720;48.488;9.202;2023-10-08T00:00:44;17.20;38.10
17208;DHT22;8720;48.488;9.202;2023-10-08T00:03:13;17.20;38.40
17208;DHT22;8720;48.488;9.202;2023-10-08T00:05:43;17.20;38.40
17208;DHT22;8720;48.488;9.202;2023-10-08T00:08:13;17.10;38.50
17208;DHT22;8720;48.488;9.202;2023-10-08T00:10:42;17.10;38.50
17208;DHT22;8720;48.488;9.202;2023-10-08T00:13:11;17.10;38.60
17208;DHT22;8720;48.488;9.202;2023-10-08T00:15:39;17.10;39.30
17208;DHT22;8720;48.488;9.202;2023-10-08T00:18:17;17.00;38.60
17208;DHT22;8720;48.488;9.202;2023-10-08T00:20:45;17.00;38.90
17208;DHT22;8720;48.488;9.202;2023-10-08T00:23:22;17.00;39.00
17208;DHT22;8720;48.488;9.202;2023-10-08T00:25:53;17.00;39.10
17208;DHT22;8720;48.488;9.202;2023-10-08T00:28:21;17.00;39.10
17208;DHT22;8720;48.488;9.202;2023-10-08T00:30:50;17.00;39.20
17208;DHT22;8720;48.488;9.202;2023-10-08T00:33:19;17.00;39.40
17208;DHT22;8720;48.488;9.202;2023-10-08T00:35:47;17.00;39.50
17208;DHT22;8720;48.488;9.202;2023-10-08T00:38:15;17.00;39.80
17208;DHT22;8720;48.488;9.202;2023-10-08T00:40:47;16.90;40.00
17208;DHT22;8720;48.488;9.202;2023-10-08T00:43:33;16.90;40.10
17208;DHT22;8720;48.488;9.202;2023-10-08T00:46:01;16.90;41.00
17208;DHT22;8720;48.488;9.202;2023-10-08T00:48:42;16.90;39.80
17208;DHT22;8720;48.488;9.202;2023-10-08T00:51:11;16.80;39.70
17208;DHT22;8720;48.488;9.202;2023-10-08T00:53:54;16.80;39.60
17208;DHT22;8720;48.488;9.202;2023-10-08T00:56:28;16.80;39.70
17208;DHT22;8720;48.488;9.202;2023-10-08T00:59:12;16.80;39.90
17208;DHT22;8720;48.488;9.202;2023-10-08T01:01:42;16.90;39.90
17208;DHT22;8720;48.488;9.202;2023-10-08T01:04:17;16.80;39.80
17208;DHT22;8720;48.488;9.202;2023-10-08T01:06:51;16.90;39.90
17208;DHT22;8720;48.488;9.202;2023-10-08T01:09:24;16.80;39.80
17208;DHT22;8720;48.488;9.202;2023-10-08T01:12:09;16.80;39.60
17208;DHT22;8720;48.488;9.202;2023-10-08T01:14:41;16.80;39.60
17208;DHT22;8720;48.488;9.202;2023-10-08T01:17:09;16.90;39.40
17208;DHT22;8720;48.488;9.202;2023-10-08T01:19:40;16.90;39.30
17208;DHT22;8720;48.488;9.202;2023-10-08T01:22:12;16.90;39.40
17208;DHT22;8720;48.488;9.202;2023-10-08T01:24:44;16.90;39.70
17208;DHT22;8720;48.488;9.202;2023-10-08T01:27:14;17.00;39.60
17208;DHT22;8720;48.488;9.202;2023-10-08T01:29:47;17.00;39.30
17208;DHT22;8720;48.488;9.202;2023-10-08T01:32:16;17.00;39.30
17208;DHT22;8720;48.488;9.202;2023-10-08T01:34:44;17.00;39.00
17208;DHT22;8720;48.488;9.202;2023-10-08T01:37:14;17.00;38.80
17208;DHT22;8720;48.488;9.202;2023-10-08T01:39:43;17.10;39.40
17208;DHT22;8720;48.488;9.202;2023-10-08T01:42:11;17.10;39.20
17208;DHT22;8720;48.488;9.202;2023-10-08T01:44:44;17.10;39.40
17208;DHT22;8720;48.488;9.202;2023-10-08T01:47:13;17.10;39.40
17208;DHT22;8720;48.488;9.202;2023-10-08T01:49:42;17.10;39.50
17208;DHT22;8720;48.488;9.202;2023-10-08T01:52:11;17.10;39.70
17208;DHT22;8720;48.488;9.202;2023-10-08T01:54:45;17.10;39.50
17208;DHT22;8720;48.488;9.202;2023-10-08T01:57:13;17.00;39.60
17208;DHT22;8720;48.488;9.202;2023-10-08T01:59:42;17.00;39.50
17208;DHT22;8720;48.488;9.202;2023-10-08T02:04:44;16.90;39.70
17208;DHT22;8720;48.488;9.202;2023-10-08T02:07:11;16.90;39.60
17208;DHT22;8720;48.488;9.202;2023-10-08T02:09:39;16.80;39.70
17208;DHT22;8720;48.488;9.202;2023-10-08T02:12:08;16.80;39.90
17208;DHT22;8720;48.488;9.202;2023-10-08T02:14:35;16.80;40.00
17208;DHT22;8720;48.488;9.202;2023-10-08T02:17:03;16.70;39.70
17208;DHT22;8720;48.488;9.202;2023-10-08T02:19:32;16.70;40.50
17208;DHT22;8720;48.488;9.202;2023-10-08T02:22:01;16.70;40.10
17208;DHT22;8720;48.488;9.202;2023-10-08T02:24:31;16.70;40.20
17208;DHT22;8720;48.488;9.202;2023-10-08T02:26:59;16.60;40.10
17208;DHT22;8720;48.488;9.202;2023-10-08T02:29:30;16.60;40.10
17208;DHT22;8720;48.488;9.202;2023-10-08T02:31:58;16.60;40.00
17208;DHT22;8720;48.488;9.202;2023-10-08T02:34:26;16.60;40.00
17208;DHT22;8720;48.488;9.202;2023-10-08T02:36:53;16.60;39.90
17208;DHT22;8720;48.488;9.202;2023-10-08T02:39:21;16.60;40.20
17208;DHT22;8720;48.488;9.202;2023-10-08T02:41:52;16.50;40.00
17208;DHT22;8720;48.488;9.202;2023-10-08T02:44:22;16.50;40.30
17208;DHT22;8720;48.488;9.202;2023-10-08T02:46:51;16.50;40.30
17208;DHT22;8720;48.488;9.202;2023-10-08T02:49:21;16.50;40.30
17208;DHT22;8720;48.488;9.202;2023-10-08T02:51:49;16.40;40.20
17208;DHT22;8720;48.488;9.202;2023-10-08T02:54:18;16.40;40.40
17208;DHT22;8720;48.488;9.202;2023-10-08T02:56:49;16.40;40.50
17208;DHT22;8720;48.488;9.202;2023-10-08T02:59:18;16.40;40.50
17208;DHT22;8720;48.488;9.202;2023-10-08T03:01:48;16.30;40.50
17208;DHT22;8720;48.488;9.202;2023-10-08T03:04:18;16.30;40.70
17208;DHT22;8720;48.488;9.202;2023-10-08T03:06:46;16.30;40.70
17208;DHT22;8720;48.488;9.202;2023-10-08T03:09:17;16.20;40.70
17208;DHT22;8720;48.488;9.202;2023-10-08T03:11:48;16.20;40.70
17208;DHT22;8720;48.488;9.202;2023-10-08T03:14:16;16.20;40.90
17208;DHT22;8720;48.488;9.202;2023-10-08T03:16:49;16.20;40.80
17208;DHT22;8720;48.488;9.202;2023-10-08T03:19:19;16.20;40.80
17208;DHT22;8720;48.488;9.202;2023-10-08T03:21:49;16.20;40.80
17208;DHT22;8720;48.488;9.202;2023-10-08T03:24:22;16.20;40.60
17208;DHT22;8720;48.488;9.202;2023-10-08T03:27:05;16.20;40.60
17208;DHT22;8720;48.488;9.202;2023-10-08T03:29:33;16.30;40.60
17208;DHT22;8720;48.488;9.202;2023-10-08T03:32:08;16.30;40.50
17208;DHT22;8720;48.488;9.202;2023-10-08T03:34:48;16.30;40.70
17208;DHT22;8720;48.488;9.202;2023-10-08T03:37:22;16.30;40.80
17208;DHT22;8720;48.488;9.202;2023-10-08T03:39:55;16.30;40.70
17208;DHT22;8720;48.488;9.202;2023-10-08T03:42:33;16.30;40.70
17208;DHT22;8720;48.488;9.202;2023-10-08T03:45:06;16.30;40.70
17208;DHT22;8720;48.488;9.202;2023-10-08T03:47:38;16.30;40.80
17208;DHT22;8720;48.488;9.202;2023-10-08T03:50:13;16.30;40.90
17208;DHT22;8720;48.488;9.202;2023-10-08T03:52:43;16.30;41.00
17208;DHT22;8720;48.488;9.202;2023-10-08T03:55:12;16.30;41.20
17208;DHT22;8720;48.488;9.202;2023-10-08T03:57:47;16.20;41.30
17208;DHT22;8720;48.488;9.202;2023-10-08T04:00:22;16.20;41.40
17208;DHT22;8720;48.488;9.202;2023-10-08T04:02:57;16.20;41.40
17208;DHT22;8720;48.488;9.202;2023-10-08T04:05:35;16.10;41.40
17208;DHT22;8720;48.488;9.202;2023-10-08T04:08:10;16.10;41.60
17208;DHT22;8720;48.488;9.202;2023-10-08T04:10:47;16.10;41.60
17208;DHT22;8720;48.488;9.202;2023-10-08T04:13:31;16.10;41.70
17208;DHT22;8720;48.488;9.202;2023-10-08T04:15:58;16.00;41.80
17208;DHT22;8720;48.488;9.202;2023-10-08T04:18:25;16.00;42.20
17208;DHT22;8720;48.488;9.202;2023-10-08T04:20:55;15.90;42.10
17208;DHT22;8720;48.488;9.202;2023-10-08T04:23:30;15.90;42.30
17208;DHT22;8720;48.488;9.202;2023-10-08T04:25:57;15.90;42.50
17208;DHT22;8720;48.488;9.202;2023-10-08T04:28:25;15.80;42.50
17208;DHT22;8720;48.488;9.202;2023-10-08T04:31:00;15.80;42.60
17208;DHT22;8720;48.488;9.202;2023-10-08T04:33:43;15.70;42.60
17208;DHT22;8720;48.488;9.202;2023-10-08T04:36:14;15.70;42.70
17208;DHT22;8720;48.488;9.202;2023-10-08T04:38:46;15.70;42.90
17208;DHT22;8720;48.488;9.202;2023-10-08T04:41:15;15.60;42.90
17208;DHT22;8720;48.488;9.202;2023-10-08T04:43:45;15.50;42.80
17208;DHT22;8720;48.488;9.202;2023-10-08T04:46:15;15.50;42.90
17208;DHT22;8720;48.488;9.202;2023-10-08T04:49:00;15.50;42.90
17208;DHT22;8720;48.488;9.202;2023-10-08T04:51:32;15.40;42.90
17208;DHT22;8720;48.488;9.202;2023-10-08T04:54:10;15.40;43.20
17208;DHT22;8720;48.488;9.202;2023-10-08T04:56:42;15.40;43.20
17208;DHT22;8720;48.488;9.202;2023-10-08T04:59:09;15.40;43.40
17208;DHT22;8720;48.488;9.202;2023-10-08T05:01:37;15.30;43.40
17208;DHT22;8720;48.488;9.202;2023-10-08T05:04:14;15.30;43.60
17208;DHT22;8720;48.488;9.202;2023-10-08T05:06:54;15.20;43.60
17208;DHT22;8720;48.488;9.202;2023-10-08T05:09:38;15.30;43.90
17208;DHT22;8720;48.488;9.202;2023-10-08T05:12:13;15.20;43.70
17208;DHT22;8720;48.488;9.202;2023-10-08T05:15:00;15.20;43.90
17208;DHT22;8720;48.488;9.202;2023-10-08T05:17:46;15.20;44.10
17208;DHT22;8720;48.488;9.202;2023-10-08T05:20:24;15.10;44.10
17208;DHT22;8720;48.488;9.202;2023-10-08T05:23:12;15.10;44.20
17208;DHT22;8720;48.488;9.202;2023-10-08T05:26:19;15.00;44.10
17208;DHT22;8720;48.488;9.202;2023-10-08T05:28:57;15.00;44.10
17208;DHT22;8720;48.488;9.202;2023-10-08T05:31:50;15.00;44.30
17208;DHT22;8720;48.488;9.202;2023-10-08T05:34:39;15.00;44.40
17208;DHT22;8720;48.488;9.202;2023-10-08T05:37:17;14.90;45.40
17208;DHT22;8720;48.488;9.202;2023-10-08T05:40:00;14.90;45.10
17208;DHT22;8720;48.488;9.202;2023-10-08T05:42:46;14.90;45.00
17208;DHT22;8720;48.488;9.202;2023-10-08T05:45:15;14.90;44.70
17208;DHT22;8720;48.488;9.202;2023-10-08T05:47:56;15.00;45.30
17208;DHT22;8720;48.488;9.202;2023-10-08T05:50:40;15.00;44.80
17208;DHT22;8720;48.488;9.202;2023-10-08T05:53:21;15.00;44.60
17208;DHT22;8720;48.488;9.202;2023-10-08T05:56:10;15.00;44.60
17208;DHT22;8720;48.488;9.202;2023-10-08T05:58:51;15.00;44.80
17208;DHT22;8720;48.488;9.202;2023-10-08T06:01:28;15.10;44.80
17208;DHT22;8720;48.488;9.202;2023-10-08T06:04:05;15.10;44.80
17208;DHT22;8720;48.488;9.202;2023-10-08T06:06:46;15.10;44.80
17208;DHT22;8720;48.488;9.202;2023-10-08T06:09:24;15.20;45.30
17208;DHT22;8720;48.488;9.202;2023-10-08T06:12:02;15.20;45.50
17208;DHT22;8720;48.488;9.202;2023-10-08T06:14:35;15.20;45.80
17208;DHT22;8720;48.488;9.202;2023-10-08T06:17:20;15.20;45.70
17208;DHT22;8720;48.488;9.202;2023-10-08T06:20:05;15.20;45.60
17208;DHT22;8720;48.488;9.202;2023-10-08T06:22:35;15.20;45.80
17208;DHT22;8720;48.488;9.202;2023-10-08T06:25:02;15.30;46.10
17208;DHT22;8720;48.488;9.202;2023-10-08T06:27:44;15.30;46.00
17208;DHT22;8720;48.488;9.202;2023-10-08T06:30:12;15.30;46.30
17208;DHT22;8720;48.488;9.202;2023-10-08T06:32:43;15.40;46.40
17208;DHT22;8720;48.488;9.202;2023-10-08T06:35:11;15.40;46.50
17208;DHT22;8720;48.488;9.202;2023-10-08T06:37:44;15.50;46.80
17208;DHT22;8720;48.488;9.202;2023-10-08T06:40:15;15.50;46.90
17208;DHT22;8720;48.488;9.202;2023-10-08T06:43:10;15.60;47.00
17208;DHT22;8720;48.488;9.202;2023-10-08T06:45:50;15.60;47.30
17208;DHT22;8720;48.488;9.202;2023-10-08T06:48:19;15.70;47.20
17208;DHT22;8720;48.488;9.202;2023-10-08T06:50:50;15.80;47.20
17208;DHT22;8720;48.488;9.202;2023-10-08T06:53:23;15.90;47.10
17208;DHT22;8720;48.488;9.202;2023-10-08T06:55:50;16.00;47.20
17208;DHT22;8720;48.488;9.202;2023-10-08T06:58:23;16.10;47.40
17208;DHT22;8720;48.488;9.202;2023-10-08T07:00:51;16.20;47.50
17208;DHT22;8720;48.488;9.202;2023-10-08T07:03:21;16.20;47.10
17208;DHT22;8720;48.488;9.202;2023-10-08T07:05:49;16.40;47.00
17208;DHT22;8720;48.488;9.202;2023-10-08T07:08:26;16.50;47.60
17208;DHT22;8720;48.488;9.202;2023-10-08T07:10:58;16.70;47.00
17208;DHT22;8720;48.488;9.202;2023-10-08T07:13:32;16.80;47.00
17208;DHT22;8720;48.488;9.202;2023-10-08T07:16:01;17.10;47.50
17208;DHT22;8720;48.488;9.202;2023-10-08T07:18:32;17.30;47.70
17208;DHT22;8720;48.488;9.202;2023-10-08T07:21:00;17.60;48.00
17208;DHT22;8720;48.488;9.202;2023-10-08T07:23:28;17.80;48.10
17208;DHT22;8720;48.488;9.202;2023-10-08T07:26:00;18.20;48.70
17208;DHT22;8720;48.488;9.202;2023-10-08T07:28:38;18.50;48.70
17208;DHT22;8720;48.488;9.202;2023-10-08T07:31:12;18.80;47.80
17208;DHT22;8720;48.488;9.202;2023-10-08T07:33:41;19.10;47.40
17208;DHT22;8720;48.488;9.202;2023-10-08T07:36:10;19.40;47.70
17208;DHT22;8720;48.488;9.202;2023-10-08T07:38:44;19.70;47.50
17208;DHT22;8720;48.488;9.202;2023-10-08T07:41:12;20.00;47.30
17208;DHT22;8720;48.488;9.202;2023-10-08T07:43:41;20.20;47.20
17208;DHT22;8720;48.488;9.202;2023-10-08T07:46:09;20.50;47.20
17208;DHT22;8720;48.488;9.202;2023-10-08T07:48:39;20.70;46.70
17208;DHT22;8720;48.488;9.202;2023-10-08T07:51:08;20.90;46.00
17208;DHT22;8720;48.488;9.202;2023-10-08T07:53:36;21.10;45.40
17208;DHT22;8720;48.488;9.202;2023-10-08T07:56:05;21.30;45.00
17208;DHT22;8720;48.488;9.202;2023-10-08T07:58:35;21.40;44.50
17208;DHT22;8720;48.488;9.202;2023-10-08T08:01:05;21.60;44.30
17208;DHT22;8720;48.488;9.202;2023-10-08T08:03:36;21.70;43.90
17208;DHT22;8720;48.488;9.202;2023-10-08T08:06:04;21.80;43.40
17208;DHT22;8720;48.488;9.202;2023-10-08T08:08:33;21.90;43.40
17208;DHT22;8720;48.488;9.202;2023-10-08T08:11:01;22.10;43.20
17208;DHT22;8720;48.488;9.202;2023-10-08T08:13:32;22.20;43.10
17208;DHT22;8720;48.488;9.202;2023-10-08T08:16:01;22.30;42.80
17208;DHT22;8720;48.488;9.202;2023-10-08T08:18:44;22.40;42.50
17208;DHT22;8720;48.488;9.202;2023-10-08T08:21:12;22.50;42.50
17208;DHT22;8720;48.488;9.202;2023-10-08T08:23:42;22.60;42.60
17208;DHT22;8720;48.488;9.202;2023-10-08T08:26:15;22.70;42.50
17208;DHT22;8720;48.488;9.202;2023-10-08T08:28:54;22.80;41.90
17208;DHT22;8720;48.488;9.202;2023-10-08T08:31:23;22.80;41.90
17208;DHT22;8720;48.488;9.202;2023-10-08T08:33:53;22.90;41.70
17208;DHT22;8720;48.488;9.202;2023-10-08T08:36:27;23.00;41.30
17208;DHT22;8720;48.488;9.202;2023-10-08T08:38:55;23.00;41.60
17208;DHT22;8720;48.488;9.202;2023-10-08T08:41:22;23.10;41.80
17208;DHT22;8720;48.488;9.202;2023-10-08T08:43:51;23.10;41.90
17208;DHT22;8720;48.488;9.202;2023-10-08T08:46:32;23.20;41.50
17208;DHT22;8720;48.488;9.202;2023-10-08T08:49:04;23.20;42.00
17208;DHT22;8720;48.488;9.202;2023-10-08T08:51:34;23.20;41.50
17208;DHT22;8720;48.488;9.202;2023-10-08T08:54:04;23.30;41.60
17208;DHT22;8720;48.488;9.202;2023-10-08T08:56:33;23.40;41.40
17208;DHT22;8720;48.488;9.202;2023-10-08T08:59:03;23.50;41.20
17208;DHT22;8720;48.488;9.202;2023-10-08T09:01:32;23.60;40.80
17208;DHT22;8720;48.488;9.202;2023-10-08T09:04:03;23.70;40.30
17208;DHT22;8720;48.488;9.202;2023-10-08T09:06:33;23.80;39.60
17208;DHT22;8720;48.488;9.202;2023-10-08T09:09:00;23.90;38.90
17208;DHT22;8720;48.488;9.202;2023-10-08T09:11:47;24.00;38.70
17208;DHT22;8720;48.488;9.202;2023-10-08T09:14:19;24.20;38.70
17208;DHT22;8720;48.488;9.202;2023-10-08T09:16:47;24.30;38.60
17208;DHT22;8720;48.488;9.202;2023-10-08T09:19:17;24.40;38.70
17208;DHT22;8720;48.488;9.202;2023-10-08T09:21:59;24.60;38.20
17208;DHT22;8720;48.488;9.202;2023-10-08T09:24:30;24.70;37.10
17208;DHT22;8720;48.488;9.202;2023-10-08T09:26:59;24.90;38.10
17208;DHT22;8720;48.488;9.202;2023-10-08T09:29:28;25.00;37.90
17208;DHT22;8720;48.488;9.202;2023-10-08T09:31:56;25.10;37.60
17208;DHT22;8720;48.488;9.202;2023-10-08T09:34:28;25.20;37.10
17208;DHT22;8720;48.488;9.202;2023-10-08T09:36:59;25.30;36.60
17208;DHT22;8720;48.488;9.202;2023-10-08T09:39:28;25.40;36.30
17208;DHT22;8720;48.488;9.202;2023-10-08T09:42:00;25.40;35.70
17208;DHT22;8720;48.488;9.202;2023-10-08T09:44:30;25.50;35.70
17208;DHT22;8720;48.488;9.202;2023-10-08T09:47:02;25.60;35.60
17208;DHT22;8720;48.488;9.202;2023-10-08T09:49:36;25.60;34.70
17208;DHT22;8720;48.488;9.202;2023-10-08T09:52:08;25.70;35.60
17208;DHT22;8720;48.488;9.202;2023-10-08T09:54:43;25.80;35.60
17208;DHT22;8720;48.488;9.202;2023-10-08T09:57:13;25.80;35.10
17208;DHT22;8720;48.488;9.202;2023-10-08T09:59:45;25.80;35.60
17208;DHT22;8720;48.488;9.202;2023-10-08T10:02:16;25.90;35.90
17208;DHT22;8720;48.488;9.202;2023-10-08T10:04:50;25.90;35.90
17208;DHT22;8720;48.488;9.202;2023-10-08T10:07:19;25.90;35.70
17208;DHT22;8720;48.488;9.202;2023-10-08T10:09:50;26.00;35.60
17208;DHT22;8720;48.488;9.202;2023-10-08T10:12:25;26.10;35.60
17208;DHT22;8720;48.488;9.202;2023-10-08T10:14:54;26.20;34.10
17208;DHT22;8720;48.488;9.202;2023-10-08T10:17:27;26.30;34.80
17208;DHT22;8720;48.488;9.202;2023-10-08T10:19:57;26.30;33.70
17208;DHT22;8720;48.488;9.202;2023-10-08T10:22:28;26.40;33.00
17208;DHT22;8720;48.488;9.202;2023-10-08T10:24:57;26.50;33.20
17208;DHT22;8720;48.488;9.202;2023-10-08T10:27:26;26.60;33.40
17208;DHT22;8720;48.488;9.202;2023-10-08T10:30:01;26.70;32.90
17208;DHT22;8720;48.488;9.202;2023-10-08T10:32:34;26.80;32.50
17208;DHT22;8720;48.488;9.202;2023-10-08T10:35:04;26.90;32.70
17208;DHT22;8720;48.488;9.202;2023-10-08T10:37:37;27.10;32.20
17208;DHT22;8720;48.488;9.202;2023-10-08T10:40:08;27.20;32.30
17208;DHT22;8720;48.488;9.202;2023-10-08T10:42:38;27.30;31.90
17208;DHT22;8720;48.488;9.202;2023-10-08T10:45:13;27.50;31.40
17208;DHT22;8720;48.488;9.202;2023-10-08T10:48:02;27.60;31.10
17208;DHT22;8720;48.488;9.202;2023-10-08T10:50:41;27.70;31.50
17208;DHT22;8720;48.488;9.202;2023-10-08T10:53:34;27.80;31.20
17208;DHT22;8720;48.488;9.202;2023-10-08T10:56:12;27.90;31.20
17208;DHT22;8720;48.488;9.202;2023-10-08T10:58:46;27.90;30.80
17208;DHT22;8720;48.488;9.202;2023-10-08T11:01:23;28.00;30.70
17208;DHT22;8720;48.488;9.202;2023-10-08T11:03:56;28.10;30.50
17208;DHT22;8720;48.488;9.202;2023-10-08T11:06:25;28.10;30.40
17208;DHT22;8720;48.488;9.202;2023-10-08T11:08:54;28.20;30.30
17208;DHT22;8720;48.488;9.202;2023-10-08T11:11:26;28.20;30.60
17208;DHT22;8720;48.488;9.202;2023-10-08T11:13:57;28.30;29.50
17208;DHT22;8720;48.488;9.202;2023-10-08T11:16:26;28.30;29.60
17208;DHT22;8720;48.488;9.202;2023-10-08T11:18:57;28.40;29.80
17208;DHT22;8720;48.488;9.202;2023-10-08T11:21:42;28.40;29.60
17208;DHT22;8720;48.488;9.202;2023-10-08T11:24:27;28.50;29.70
17208;DHT22;8720;48.488;9.202;2023-10-08T11:26:55;28.60;29.30
17208;DHT22;8720;48.488;9.202;2023-10-08T11:29:41;28.60;29.50
17208;DHT22;8720;48.488;9.202;2023-10-08T11:32:10;28.70;29.40
17208;DHT22;8720;48.488;9.202;2023-10-08T11:34:41;28.70;29.40
17208;DHT22;8720;48.488;9.202;2023-10-08T11:37:11;28.70;29.40
17208;DHT22;8720;48.488;9.202;2023-10-08T11:39:46;28.70;29.30
17208;DHT22;8720;48.488;9.202;2023-10-08T11:42:14;28.80;29.40
17208;DHT22;8720;48.488;9.202;2023-10-08T11:44:59;28.80;29.50
17208;DHT22;8720;48.488;9.202;2023-10-08T11:47:43;28.80;29.30
17208;DHT22;8720;48.488;9.202;2023-10-08T11:50:11;28.80;29.40
17208;DHT22;8720;48.488;9.202;2023-10-08T11:52:46;28.80;29.30
17208;DHT22;8720;48.488;9.202;2023-10-08T11:55:13;28.70;29.70
17208;DHT22;8720;48.488;9.202;2023-10-08T11:57:45;28.70;29.20
17208;DHT22;8720;48.488;9.202;2023-10-08T12:00:15;28.70;29.30
17208;DHT22;8720;48.488;9.202;2023-10-08T12:02:51;28.70;29.50
17208;DHT22;8720;48.488;9.202;2023-10-08T12:05:21;28.70;29.10
17208;DHT22;8720;48.488;9.202;2023-10-08T12:07:52;28.70;29.50
17208;DHT22;8720;48.488;9.202;2023-10-08T12:10:23;28.70;29.40
17208;DHT22;8720;48.488;9.202;2023-10-08T12:12:51;28.70;29.40
17208;DHT22;8720;48.488;9.202;2023-10-08T12:15:20;28.70;29.30
17208;DHT22;8720;48.488;9.202;2023-10-08T12:17:52;28.70;29.20
17208;DHT22;8720;48.488;9.202;2023-10-08T12:20:46;28.70;29.30
17208;DHT22;8720;48.488;9.202;2023-10-08T12:23:14;28.70;29.40
17208;DHT22;8720;48.488;9.202;2023-10-08T12:25:51;28.70;29.40
17208;DHT22;8720;48.488;9.202;2023-10-08T12:28:21;28.60;29.30
17208;DHT22;8720;48.488;9.202;2023-10-08T12:30:49;28.60;29.40
17208;DHT22;8720;48.488;9.202;2023-10-08T12:33:18;28.60;29.30
17208;DHT22;8720;48.488;9.202;2023-10-08T12:35:47;28.60;29.60
17208;DHT22;8720;48.488;9.202;2023-10-08T12:38:14;28.50;29.30
17208;DHT22;8720;48.488;9.202;2023-10-08T12:40:46;28.50;29.30
17208;DHT22;8720;48.488;9.202;2023-10-08T12:43:19;28.50;29.20
17208;DHT22;8720;48.488;9.202;2023-10-08T12:45:47;28.40;29.40
17208;DHT22;8720;48.488;9.202;2023-10-08T12:48:19;28.40;29.50
17208;DHT22;8720;48.488;9.202;2023-10-08T12:50:49;28.40;29.40
17208;DHT22;8720;48.488;9.202;2023-10-08T12:53:23;28.40;29.10
17208;DHT22;8720;48.488;9.202;2023-10-08T12:55:53;28.30;29.30
17208;DHT22;8720;48.488;9.202;2023-10-08T12:58:23;28.40;29.40
17208;DHT22;8720;48.488;9.202;2023-10-08T13:00:52;28.30;29.20
17208;DHT22;8720;48.488;9.202;2023-10-08T13:03:27;28.30;29.00
17208;DHT22;8720;48.488;9.202;2023-10-08T13:05:59;28.30;28.60
17208;DHT22;8720;48.488;9.202;2023-10-08T13:08:30;28.30;28.70
17208;DHT22;8720;48.488;9.202;2023-10-08T13:11:00;28.30;28.80
17208;DHT22;8720;48.488;9.202;2023-10-08T13:13:27;28.30;28.60
17208;DHT22;8720;48.488;9.202;2023-10-08T13:15:55;28.40;28.60
17208;DHT22;8720;48.488;9.202;2023-10-08T13:18:26;28.40;28.60
17208;DHT22;8720;48.488;9.202;2023-10-08T13:20:53;28.40;28.60
17208;DHT22;8720;48.488;9.202;2023-10-08T13:23:24;28.40;28.50
17208;DHT22;8720;48.488;9.202;2023-10-08T13:25:52;28.40;28.70
17208;DHT22;8720;48.488;9.202;2023-10-08T13:28:21;28.40;28.60
17208;DHT22;8720;48.488;9.202;2023-10-08T13:30:49;28.40;28.60
17208;DHT22;8720;48.488;9.202;2023-10-08T13:33:20;28.40;28.60
17208;DHT22;8720;48.488;9.202;2023-10-08T13:35:49;28.30;28.40
17208;DHT22;8720;48.488;9.202;2023-10-08T13:38:17;28.40;28.40
17208;DHT22;8720;48.488;9.202;2023-10-08T13:40:48;28.40;27.90
17208;DHT22;8720;48.488;9.202;2023-10-08T13:43:33;28.40;28.10
17208;DHT22;8720;48.488;9.202;2023-10-08T13:46:05;28.40;28.10
17208;DHT22;8720;48.488;9.202;2023-10-08T13:48:39;28.40;28.00
17208;DHT22;8720;48.488;9.202;2023-10-08T13:51:08;28.40;28.20
17208;DHT22;8720;48.488;9.202;2023-10-08T13:53:40;28.30;28.50
17208;DHT22;8720;48.488;9.202;2023-10-08T13:56:12;28.40;28.30
17208;DHT22;8720;48.488;9.202;2023-10-08T13:58:40;28.40;28.30
17208;DHT22;8720;48.488;9.202;2023-10-08T14:01:12;28.40;28.30
17208;DHT22;8720;48.488;9.202;2023-10-08T14:03:47;28.40;28.30
17208;DHT22;8720;48.488;9.202;2023-10-08T14:06:18;28.40;28.40
17208;DHT22;8720;48.488;9.202;2023-10-08T14:08:48;28.40;28.30
17208;DHT22;8720;48.488;9.202;2023-10-08T14:11:21;28.40;28.30
17208;DHT22;8720;48.488;9.202;2023-10-08T14:13:50;28.40;28.30
17208;DHT22;8720;48.488;9.202;2023-10-08T14:16:18;28.40;28.40
17208;DHT22;8720;48.488;9.202;2023-10-08T14:18:50;28.40;28.40
17208;DHT22;8720;48.488;9.202;2023-10-08T14:21:20;28.40;28.50
17208;DHT22;8720;48.488;9.202;2023-10-08T14:23:49;28.40;28.50
17208;DHT22;8720;48.488;9.202;2023-10-08T14:26:19;28.40;28.50
17208;DHT22;8720;48.488;9.202;2023-10-08T14:28:49;28.40;28.50
17208;DHT22;8720;48.488;9.202;2023-10-08T14:31:23;28.30;28.60
17208;DHT22;8720;48.488;9.202;2023-10-08T14:33:52;28.30;28.60
17208;DHT22;8720;48.488;9.202;2023-10-08T14:36:31;28.30;28.70
17208;DHT22;8720;48.488;9.202;2023-10-08T14:39:17;28.20;28.90
17208;DHT22;8720;48.488;9.202;2023-10-08T14:42:04;28.20;28.90
17208;DHT22;8720;48.488;9.202;2023-10-08T14:44:49;28.10;28.90
17208;DHT22;8720;48.488;9.202;2023-10-08T14:47:17;28.10;29.00
17208;DHT22;8720;48.488;9.202;2023-10-08T14:49:45;28.10;29.30
17208;DHT22;8720;48.488;9.202;2023-10-08T14:52:13;28.10;29.20
17208;DHT22;8720;48.488;9.202;2023-10-08T14:54:40;28.10;29.20
17208;DHT22;8720;48.488;9.202;2023-10-08T14:57:10;28.10;29.50
17208;DHT22;8720;48.488;9.202;2023-10-08T14:59:40;28.10;29.50
17208;DHT22;8720;48.488;9.202;2023-10-08T15:02:07;28.10;29.60
17208;DHT22;8720;48.488;9.202;2023-10-08T15:04:36;28.00;29.80
17208;DHT22;8720;48.488;9.202;2023-10-08T15:07:05;28.00;29.90
17208;DHT22;8720;48.488;9.202;2023-10-08T15:09:35;28.00;30.00
17208;DHT22;8720;48.488;9.202;2023-10-08T15:12:03;28.00;30.10
17208;DHT22;8720;48.488;9.202;2023-10-08T15:14:33;27.90;30.10
17208;DHT22;8720;48.488;9.202;2023-10-08T15:17:01;27.90;30.20
17208;DHT22;8720;48.488;9.202;2023-10-08T15:19:31;27.90;30.20
17208;DHT22;8720;48.488;9.202;2023-10-08T15:21:59;27.80;30.10
17208;DHT22;8720;48.488;9.202;2023-10-08T15:24:27;27.80;30.10
17208;DHT22;8720;48.488;9.202;2023-10-08T15:26:55;27.80;30.10
17208;DHT22;8720;48.488;9.202;2023-10-08T15:29:23;27.70;30.10
17208;DHT22;8720;48.488;9.202;2023-10-08T15:31:53;27.60;30.10
17208;DHT22;8720;48.488;9.202;2023-10-08T15:34:23;27.60;30.40
17208;DHT22;8720;48.488;9.202;2023-10-08T15:36:52;27.60;30.40
17208;DHT22;8720;48.488;9.202;2023-10-08T15:39:20;27.50;30.50
17208;DHT22;8720;48.488;9.202;2023-10-08T15:41:50;27.50;30.50
17208;DHT22;8720;48.488;9.202;2023-10-08T15:44:18;27.50;30.50
17208;DHT22;8720;48.488;9.202;2023-10-08T15:46:48;27.40;30.50
17208;DHT22;8720;48.488;9.202;2023-10-08T15:49:18;27.30;30.60
17208;DHT22;8720;48.488;9.202;2023-10-08T15:51:46;27.30;30.60
17208;DHT22;8720;48.488;9.202;2023-10-08T15:54:14;27.20;30.60
17208;DHT22;8720;48.488;9.202;2023-10-08T15:56:46;27.10;30.60
17208;DHT22;8720;48.488;9.202;2023-10-08T15:59:14;27.00;30.50
17208;DHT22;8720;48.488;9.202;2023-10-08T16:01:42;27.00;30.60
17208;DHT22;8720;48.488;9.202;2023-10-08T16:04:12;26.80;30.60
17208;DHT22;8720;48.488;9.202;2023-10-08T16:06:41;26.80;30.70
17208;DHT22;8720;48.488;9.202;2023-10-08T16:09:09;26.70;30.70
17208;DHT22;8720;48.488;9.202;2023-10-08T16:11:37;26.60;30.70
17208;DHT22;8720;48.488;9.202;2023-10-08T16:14:05;26.50;30.70
17208;DHT22;8720;48.488;9.202;2023-10-08T16:16:33;26.50;30.80
17208;DHT22;8720;48.488;9.202;2023-10-08T16:19:02;26.40;30.80